Time;durP1;ratioP1;P1;durP2;ratioP2;P2;SDS_P1;SDS_P2;PMS_P1;PMS_P2;Temp;Humidity;BMP_temperature;BMP_pressure;BME280_temperature;BME280_humidity;BME280_pressure;Samples;Min_cycle;Max_cycle;Signal;HPM_P1;HPM_P2
2022/04/21 00:01:29;;;;;;;23.90;11.40;;;;;;;6.25;86.61;99937.39;105745;1271;22536;-55
2022/04/21 00:04:00;;;;;;;27.80;13.90;;;;;;;6.22;86.64;99934.59;105875;1271;22567;-57
2022/04/21 00:06:32;;;;;;;27.80;12.70;;;;;;;6.23;86.75;99931.63;105739;1271;25304;-56
2022/04/21 00:09:03;;;;;;;25.30;12.60;;;;;;;6.25;86.80;99934.80;105813;1271;22532;-57
2022/04/21 00:11:36;;;;;;;27.60;13.20;;;;;;;6.26;86.74;99931.66;105650;1272;26017;-57
2022/04/21 00:14:07;;;;;;;28.50;14.30;;;;;;;6.25;86.83;99934.52;105707;1272;24105;-55
2022/04/21 00:16:40;;;;;;;27.60;13.20;;;;;;;6.27;86.82;99930.96;105699;1271;25379;-57
2022/04/21 00:19:12;;;;;;;29.60;13.80;;;;;;;6.28;86.78;99927.52;105712;1271;25434;-57
2022/04/21 00:24:33;;;;;;;29.60;14.00;;;;;;;6.30;86.77;99925.95;105861;1271;25241;-57
2022/04/21 00:27:04;;;;;;;29.10;13.50;;;;;;;6.31;86.85;99922.30;105681;1271;22997;-57
2022/04/21 00:29:36;;;;;;;28.40;14.30;;;;;;;6.30;86.83;99920.48;105774;1271;22573;-56
2022/04/21 00:32:09;;;;;;;27.60;13.70;;;;;;;6.30;86.84;99916.06;105746;1272;22875;-57
2022/04/21 00:34:41;;;;;;;26.90;12.10;;;;;;;6.29;86.85;99914.48;105889;1271;22566;-56
2022/04/21 00:37:12;;;;;;;27.30;13.70;;;;;;;6.30;86.85;99912.73;105799;1271;23230;-57
2022/04/21 00:39:44;;;;;;;29.80;13.60;;;;;;;6.30;86.88;99912.24;105900;1272;24387;-58
2022/04/21 00:42:16;;;;;;;29.80;14.30;;;;;;;6.31;86.91;99919.89;105803;1271;24289;-55
2022/04/21 00:44:49;;;;;;;30.00;15.10;;;;;;;6.32;86.93;99916.13;105632;1272;24327;-57
2022/04/21 00:47:21;;;;;;;33.20;15.00;;;;;;;6.32;86.81;99913.58;105798;1271;24237;-55
2022/04/21 00:49:53;;;;;;;32.00;15.30;;;;;;;6.32;86.78;99905.58;105954;1271;25313;-56
2022/04/21 00:52:27;;;;;;;29.80;13.90;;;;;;;6.30;86.74;99900.05;106041;1271;23852;-57
2022/04/21 00:55:00;;;;;;;28.30;14.40;;;;;;;6.28;86.78;99898.63;105658;1272;22544;-54
2022/04/21 00:57:32;;;;;;;30.70;15.70;;;;;;;6.25;86.84;99897.08;106007;1271;25305;-57
2022/04/21 01:00:04;;;;;;;33.40;16.90;;;;;;;6.21;86.96;99894.17;105875;1271;24208;-55
2022/04/21 01:02:49;;;;;;;33.80;17.20;;;;;;;6.17;87.07;99898.36;105798;1271;22546;-58
2022/04/21 01:05:26;;;;;;;33.50;17.10;;;;;;;6.16;87.11;99900.55;105836;1271;24339;-57
2022/04/21 01:07:59;;;;;;;29.60;15.40;;;;;;;6.13;87.15;99907.48;105805;1271;22582;-56
2022/04/21 01:10:34;;;;;;;32.00;16.60;;;;;;;6.12;87.17;99912.44;105875;1272;25375;-56
2022/04/21 01:13:10;;;;;;;34.90;17.90;;;;;;;6.12;87.20;99912.04;105891;1271;23177;-58
2022/04/21 01:15:42;;;;;;;33.40;17.60;;;;;;;6.14;87.21;99912.60;105736;1272;23196;-56
2022/04/21 01:18:13;;;;;;;36.40;18.10;;;;;;;6.14;87.28;99910.70;105777;1271;22556;-56
2022/04/21 01:20:45;;;;;;;35.90;17.80;;;;;;;6.14;87.27;99911.06;105689;1271;24285;-55
2022/04/21 01:23:16;;;;;;;37.90;18.30;;;;;;;6.15;87.26;99909.91;105709;1272;23333;-55
2022/04/21 01:25:49;;;;;;;36.50;18.10;;;;;;;6.15;87.31;99908.34;105876;1271;24385;-57
2022/04/21 01:28:21;;;;;;;34.50;17.10;;;;;;;6.14;87.38;99907.05;105955;1272;22531;-58
2022/04/21 01:30:56;;;;;;;36.10;17.60;;;;;;;6.13;87.39;99909.91;105696;1272;22531;-57
2022/04/21 01:33:29;;;;;;;37.00;18.10;;;;;;;6.14;87.43;99906.01;105774;1272;23154;-58
2022/04/21 01:36:00;;;;;;;34.80;18.00;;;;;;;6.15;87.52;99903.60;105723;1272;25347;-57
2022/04/21 01:41:20;;;;;;;34.90;18.00;;;;;;;6.17;87.57;99892.13;105863;1272;25501;-55
2022/04/21 01:43:52;;;;;;;34.70;18.40;;;;;;;6.17;87.57;99891.02;105726;1272;22659;-56
2022/04/21 01:46:24;;;;;;;34.50;16.90;;;;;;;6.16;87.64;99891.75;105731;1272;22532;-59
2022/04/21 01:48:57;;;;;;;37.70;16.90;;;;;;;6.15;87.63;99894.80;105831;1271;25274;-58
2022/04/21 01:51:28;;;;;;;37.40;16.30;;;;;;;6.14;87.74;99891.75;105735;1272;22528;-56
2022/04/21 01:54:01;;;;;;;40.80;18.30;;;;;;;6.12;87.83;99891.77;105869;1271;22625;-56
2022/04/21 01:56:34;;;;;;;36.60;17.00;;;;;;;6.09;87.85;99888.77;105678;1271;22531;-59
2022/04/21 01:59:05;;;;;;;43.90;18.00;;;;;;;6.11;87.96;99888.32;105739;1271;24393;-54
2022/04/21 02:01:37;;;;;;;41.60;17.80;;;;;;;6.10;87.95;99882.50;105715;1271;22685;-55
2022/04/21 02:04:08;;;;;;;36.10;17.70;;;;;;;6.08;88.01;99875.69;105787;1270;24235;-56
2022/04/21 02:06:40;;;;;;;35.20;16.00;;;;;;;6.08;87.98;99879.82;105690;1271;22663;-57
2022/04/21 02:09:11;;;;;;;32.10;15.90;;;;;;;6.07;88.02;99884.82;105708;1272;24221;-57
2022/04/21 02:11:43;;;;;;;36.10;19.10;;;;;;;6.07;88.00;99889.27;105910;1271;23079;-57
2022/04/21 02:14:14;;;;;;;35.60;18.10;;;;;;;6.08;88.11;99889.29;105978;1271;25251;-56
2022/04/21 02:16:46;;;;;;;37.90;17.40;;;;;;;6.08;88.06;99893.98;105947;1272;25456;-55
2022/04/21 02:19:17;;;;;;;35.80;18.40;;;;;;;6.10;88.08;99897.21;105867;1271;22553;-59
2022/04/21 02:21:49;;;;;;;39.80;17.50;;;;;;;6.13;88.13;99895.36;106134;1271;22753;-58
2022/04/21 02:24:20;;;;;;;34.50;17.30;;;;;;;6.16;88.08;99895.70;105926;1271;22592;-57
2022/04/21 02:26:52;;;;;;;34.70;17.60;;;;;;;6.19;88.18;99895.89;105824;1272;25256;-59
2022/04/21 02:29:25;;;;;;;36.50;17.00;;;;;;;6.21;87.98;99891.95;105917;1271;24109;-59
2022/04/21 02:31:58;;;;;;;34.80;17.30;;;;;;;6.23;87.87;99895.59;105670;1272;26068;-57
2022/04/21 02:34:30;;;;;;;43.30;18.90;;;;;;;6.25;87.95;99896.12;105886;1272;22631;-57
2022/04/21 02:37:03;;;;;;;36.20;17.40;;;;;;;6.27;87.93;99890.92;105859;1271;22527;-56
2022/04/21 02:39:34;;;;;;;36.80;16.40;;;;;;;6.24;87.91;99886.58;106069;1272;24409;-58
2022/04/21 02:42:07;;;;;;;37.80;18.20;;;;;;;6.26;87.91;99889.75;105870;1271;22543;-55
2022/04/21 02:44:38;;;;;;;33.20;16.40;;;;;;;6.29;87.81;99895.27;105960;1271;24294;-57
2022/04/21 02:47:11;;;;;;;35.80;16.60;;;;;;;6.31;87.90;99891.05;106010;1271;22538;-57
2022/04/21 02:49:46;;;;;;;38.30;17.10;;;;;;;6.32;87.95;99897.28;105986;1271;24336;-55
2022/04/21 02:52:18;;;;;;;38.70;18.40;;;;;;;6.32;87.87;99894.91;105962;1272;22566;-57
2022/04/21 02:57:41;;;;;;;34.10;16.40;;;;;;;6.30;87.73;99895.67;105671;1271;24306;-59
2022/04/21 03:00:14;;;;;;;36.30;18.40;;;;;;;6.29;87.82;99895.24;105714;1271;22529;-56
2022/04/21 03:02:46;;;;;;;33.20;17.00;;;;;;;6.30;87.81;99891.48;106023;1271;22564;-56
2022/04/21 03:05:18;;;;;;;39.50;17.60;;;;;;;6.33;87.93;99895.50;106116;1271;22567;-56
2022/04/21 03:07:50;;;;;;;30.40;15.90;;;;;;;6.35;87.84;99898.70;105722;1272;22589;-58
2022/04/21 03:10:21;;;;;;;35.60;17.10;;;;;;;6.36;87.76;99897.66;105848;1272;22579;-58
2022/04/21 03:12:58;;;;;;;36.50;17.30;;;;;;;6.36;87.82;99897.11;106064;1271;22537;-58
2022/04/21 03:15:30;;;;;;;35.20;18.90;;;;;;;6.37;87.89;99897.55;106179;1271;22592;-56
2022/04/21 03:18:01;;;;;;;35.60;17.20;;;;;;;6.39;87.91;99896.99;105946;1271;22535;-59
2022/04/21 03:26:23;;;;;;;40.50;18.60;;;;;;;6.43;87.78;99908.86;105578;1276;22531;-57
2022/04/21 03:28:55;;;;;;;35.60;18.90;;;;;;;6.43;87.71;99909.98;105667;1276;22778;-56
2022/04/21 03:31:27;;;;;;;39.70;19.70;;;;;;;6.44;87.86;99905.64;105686;1276;24919;-56
2022/04/21 03:33:58;;;;;;;42.10;21.70;;;;;;;6.44;87.90;99900.66;105704;1276;25258;-58
2022/04/21 03:36:32;;;;;;;38.70;20.30;;;;;;;6.43;87.91;99900.69;105755;1276;24236;-58
2022/04/21 03:39:03;;;;;;;38.50;20.60;;;;;;;6.43;87.85;99898.39;105519;1276;25422;-56
2022/04/21 03:41:35;;;;;;;44.90;22.20;;;;;;;6.43;87.93;99900.20;105488;1276;25746;-54
2022/04/21 03:44:07;;;;;;;40.80;20.70;;;;;;;6.45;87.97;99902.36;105581;1276;26545;-55
2022/04/21 03:46:40;;;;;;;55.60;24.70;;;;;;;6.46;87.89;99902.77;105492;1276;22596;-57
2022/04/21 03:49:11;;;;;;;41.40;22.40;;;;;;;6.48;88.11;99901.14;105580;1276;23096;-57
2022/04/21 03:51:43;;;;;;;38.50;20.20;;;;;;;6.49;88.06;99901.81;105852;1276;22619;-57
2022/04/21 03:54:15;;;;;;;40.80;20.60;;;;;;;6.48;88.13;99899.28;105640;1276;24184;-55
2022/04/21 03:56:47;;;;;;;38.80;20.60;;;;;;;6.49;88.17;99897.59;105674;1276;24320;-55
2022/04/21 03:59:18;;;;;;;43.10;20.40;;;;;;;6.50;88.09;99900.80;105748;1272;22561;-56
2022/04/21 04:01:51;;;;;;;40.00;20.70;;;;;;;6.49;88.17;99903.92;106087;1272;22554;-54
2022/04/21 04:04:22;;;;;;;35.90;19.50;;;;;;;6.51;88.11;99900.27;105834;1271;26253;-57
2022/04/21 04:12:35;;;;;;;38.50;19.30;;;;;;;6.53;88.22;99902.91;105779;1272;25337;-57
2022/04/21 04:15:09;;;;;;;41.60;20.00;;;;;;;6.52;88.31;99903.58;105782;1272;23560;-56
2022/04/21 04:17:44;;;;;;;38.60;20.30;;;;;;;6.53;88.29;99900.13;106104;1272;25260;-55
2022/04/21 04:20:15;;;;;;;40.70;21.20;;;;;;;6.53;88.25;99901.79;106001;1272;22647;-57
2022/04/21 04:22:47;;;;;;;42.60;21.50;;;;;;;6.53;88.23;99902.59;105995;1272;25405;-54
2022/04/21 04:25:18;;;;;;;41.70;21.30;;;;;;;6.53;88.33;99899.39;106077;1272;23945;-56
2022/04/21 04:27:50;;;;;;;37.40;19.00;;;;;;;6.55;88.35;99899.02;105841;1272;22561;-57
2022/04/21 04:30:21;;;;;;;39.60;20.90;;;;;;;6.56;88.38;99903.89;105905;1272;22905;-58
2022/04/21 04:32:54;;;;;;;38.10;21.00;;;;;;;6.56;88.23;99907.77;105934;1272;25569;-57
2022/04/21 04:35:26;;;;;;;40.40;19.80;;;;;;;6.56;88.32;99910.85;106238;1271;25601;-58
2022/04/21 04:37:57;;;;;;;38.60;19.70;;;;;;;6.57;88.42;99909.41;106012;1272;25473;-57
2022/04/21 04:40:29;;;;;;;36.30;19.40;;;;;;;6.56;88.39;99903.55;106192;1274;24256;-56
2022/04/21 04:43:01;;;;;;;37.10;20.70;;;;;;;6.57;88.49;99906.61;105921;1275;24449;-56
2022/04/21 04:48:23;;;;;;;36.50;20.90;;;;;;;6.56;88.56;99908.23;105933;1275;24076;-57
2022/04/21 04:50:55;;;;;;;37.70;19.50;;;;;;;6.57;88.54;99909.54;105983;1273;22554;-58
2022/04/21 04:53:28;;;;;;;43.00;22.30;;;;;;;6.59;88.56;99909.44;106253;1274;22796;-58
2022/04/21 04:56:00;;;;;;;43.00;22.60;;;;;;;6.61;88.58;99910.71;105821;1272;26003;-57
2022/04/21 04:58:31;;;;;;;40.60;22.00;;;;;;;6.63;88.50;99909.94;105915;1275;22615;-56
2022/04/21 05:01:04;;;;;;;40.20;22.90;;;;;;;6.62;88.44;99917.48;106056;1273;25863;-57
2022/04/21 05:03:36;;;;;;;42.50;23.30;;;;;;;6.65;88.66;99918.98;105860;1274;25984;-56
2022/04/21 05:06:08;;;;;;;40.60;22.60;;;;;;;6.68;88.81;99917.88;105865;1274;22557;-57
2022/04/21 05:08:40;;;;;;;41.10;24.10;;;;;;;6.71;88.70;99922.37;105666;1275;22492;-56
2022/04/21 05:11:11;;;;;;;43.60;24.10;;;;;;;6.73;88.43;99922.50;106423;1273;25366;-59
2022/04/21 05:13:43;;;;;;;43.50;22.90;;;;;;;6.76;88.54;99915.88;105565;1273;22484;-54
2022/04/21 05:16:15;;;;;;;44.70;23.80;;;;;;;6.76;88.38;99915.23;105873;1275;22596;-55
2022/04/21 05:18:47;;;;;;;38.80;22.40;;;;;;;6.76;88.45;99917.60;106041;1275;22529;-57
2022/04/21 05:21:21;;;;;;;43.10;24.30;;;;;;;6.75;88.37;99914.67;105843;1274;22542;-56
2022/04/21 05:23:59;;;;;;;43.70;25.30;;;;;;;6.75;88.32;99915.75;106534;1274;24980;-57
2022/04/21 05:26:33;;;;;;;45.50;24.20;;;;;;;6.76;88.35;99920.41;105761;1274;24819;-57
2022/04/21 05:30:55;;;;;;;42.40;25.70;;;;;;;6.76;88.54;99919.42;106031;1273;25352;-57
2022/04/21 05:31:59;;;;;;;46.90;25.80;;;;;;;6.76;88.24;99916.98;105755;1275;24245;-55
2022/04/21 05:34:33;;;;;;;48.50;27.00;;;;;;;6.77;88.39;99920.90;105912;1275;22863;-59
2022/04/21 05:37:06;;;;;;;44.70;25.30;;;;;;;6.78;88.17;99919.83;105902;1274;23214;-58
2022/04/21 05:39:40;;;;;;;47.10;26.90;;;;;;;6.80;88.11;99912.83;105923;1274;22649;-58
2022/04/21 05:42:19;;;;;;;49.60;26.80;;;;;;;6.87;88.52;99915.02;106000;1274;24258;-58
2022/04/21 05:44:53;;;;;;;43.10;24.70;;;;;;;6.94;88.88;99909.73;105912;1273;22566;-60
2022/04/21 05:47:33;;;;;;;45.60;24.30;;;;;;;6.99;88.75;99913.86;106106;1273;24098;-58
2022/04/21 05:50:07;;;;;;;47.70;25.90;;;;;;;7.02;88.40;99908.06;105818;1275;22496;-58
2022/04/21 05:52:41;;;;;;;41.40;22.10;;;;;;;7.07;88.47;99911.27;105828;1275;22537;-59
2022/04/21 05:55:16;;;;;;;39.70;22.40;;;;;;;7.09;88.11;99907.54;105928;1274;24289;-55
2022/04/21 05:57:48;;;;;;;44.40;23.50;;;;;;;7.13;88.24;99909.11;106071;1275;25366;-57
2022/04/21 06:00:22;;;;;;;41.10;23.50;;;;;;;7.20;88.77;99906.48;106060;1275;24873;-55
2022/04/21 06:02:54;;;;;;;42.90;22.70;;;;;;;7.27;88.60;99910.30;106007;1277;22528;-58
2022/04/21 06:05:26;;;;;;;42.50;22.90;;;;;;;7.33;88.47;99908.93;106070;1273;22552;-58
2022/04/21 06:07:58;;;;;;;44.60;23.00;;;;;;;7.38;88.39;99911.55;105906;1273;22528;-57
2022/04/21 06:10:30;;;;;;;39.30;21.00;;;;;;;7.44;88.21;99914.64;106077;1273;25262;-57
2022/04/21 06:13:02;;;;;;;43.50;21.70;;;;;;;7.47;87.93;99915.66;106068;1273;22551;-58
2022/04/21 06:15:34;;;;;;;43.20;21.70;;;;;;;7.54;88.29;99916.00;106187;1274;25519;-57
2022/04/21 06:18:06;;;;;;;44.30;21.40;;;;;;;7.60;88.18;99918.58;106080;1273;25267;-59
2022/04/21 06:20:37;;;;;;;42.40;21.90;;;;;;;7.64;87.93;99925.23;106145;1273;22760;-59
2022/04/21 06:23:10;;;;;;;43.60;19.80;;;;;;;7.65;87.48;99925.33;105984;1273;22580;-58
2022/04/21 06:25:42;;;;;;;43.80;20.40;;;;;;;7.68;87.69;99934.73;106005;1273;22554;-56
2022/04/21 06:28:16;;;;;;;39.60;20.50;;;;;;;7.72;87.79;99930.10;106116;1273;23008;-58
2022/04/21 06:30:48;;;;;;;43.00;21.70;;;;;;;7.76;87.93;99936.11;105995;1273;24755;-58
2022/04/21 06:33:20;;;;;;;45.20;22.40;;;;;;;7.78;87.66;99937.73;105990;1274;25916;-59
2022/04/21 06:35:52;;;;;;;47.10;23.60;;;;;;;7.78;87.58;99937.02;105900;1274;22556;-56
2022/04/21 06:38:24;;;;;;;47.90;21.50;;;;;;;7.80;87.46;99938.42;106037;1273;22579;-59
2022/04/21 06:40:56;;;;;;;46.30;21.20;;;;;;;7.84;87.56;99943.98;105888;1273;25251;-57
2022/04/21 06:49:17;;;;;;;43.90;20.90;;;;;;;7.82;87.22;99954.30;105448;1279;24800;-58
2022/04/21 06:51:49;;;;;;;49.10;20.70;;;;;;;7.82;86.96;99956.67;105473;1279;22720;-57
2022/04/21 06:54:21;;;;;;;38.60;17.50;;;;;;;7.84;86.98;99958.44;105399;1279;22556;-57
2022/04/21 06:56:53;;;;;;;44.70;18.50;;;;;;;7.84;86.86;99954.05;105407;1279;22547;-57
2022/04/21 06:59:24;;;;;;;37.20;18.50;;;;;;;7.83;86.59;99954.09;105324;1279;24458;-57
2022/04/21 07:01:56;;;;;;;45.40;19.10;;;;;;;7.83;86.57;99951.64;105437;1279;25391;-57
2022/04/21 07:04:28;;;;;;;41.20;16.90;;;;;;;7.85;86.53;99958.37;105400;1277;22688;-58
2022/04/21 07:07:00;;;;;;;40.90;18.30;;;;;;;7.87;86.55;99958.92;105388;1279;25246;-56
2022/04/21 07:09:31;;;;;;;44.20;19.50;;;;;;;7.89;86.58;99959.63;105745;1279;25554;-55
2022/04/21 07:12:04;;;;;;;39.10;17.30;;;;;;;7.93;86.80;99963.10;105566;1279;26521;-57
2022/04/21 07:14:41;;;;;;;42.60;17.00;;;;;;;7.94;86.45;99964.77;105676;1279;25489;-58
2022/04/21 07:17:12;;;;;;;41.40;18.30;;;;;;;7.95;86.33;99963.13;105534;1279;22593;-60
2022/04/21 07:19:44;;;;;;;41.00;18.30;;;;;;;7.97;86.41;99960.43;105502;1279;24285;-56
2022/04/21 07:22:16;;;;;;;39.20;16.90;;;;;;;7.98;86.15;99962.78;105664;1273;24544;-54
2022/04/21 07:24:48;;;;;;;42.10;17.50;;;;;;;8.00;86.37;99965.88;105791;1274;25337;-58
2022/04/21 07:27:20;;;;;;;46.70;21.30;;;;;;;8.00;86.10;99969.27;105950;1273;22851;-55
2022/04/21 07:29:52;;;;;;;49.30;22.40;;;;;;;8.02;86.27;99975.37;105811;1273;22601;-56
2022/04/21 07:32:24;;;;;;;58.30;26.40;;;;;;;8.04;86.13;99974.94;105736;1273;27432;-55
2022/04/21 07:34:56;;;;;;;52.60;25.10;;;;;;;8.07;86.16;99977.41;106031;1273;22529;-57
2022/04/21 07:37:27;;;;;;;57.40;25.60;;;;;;;8.08;86.03;99978.44;105749;1274;23780;-55
2022/04/21 07:39:59;;;;;;;58.50;25.60;;;;;;;8.10;86.21;99976.27;105777;1273;25411;-56
2022/04/21 07:42:30;;;;;;;53.40;25.40;;;;;;;8.12;86.03;99978.34;105894;1274;22553;-56
2022/04/21 07:45:03;;;;;;;57.20;26.20;;;;;;;8.13;85.87;99979.54;105811;1273;22543;-55
2022/04/21 07:47:35;;;;;;;57.80;26.10;;;;;;;8.11;85.70;99981.16;105583;1273;25311;-55
2022/04/21 07:50:08;;;;;;;57.70;27.60;;;;;;;8.11;86.04;99983.38;105721;1273;25370;-58
2022/04/21 07:55:30;;;;;;;63.90;27.90;;;;;;;8.17;85.73;99984.49;105725;1273;22587;-56
2022/04/21 07:58:02;;;;;;;63.70;28.80;;;;;;;8.18;85.66;99986.14;105913;1273;25570;-58
2022/04/21 08:00:36;;;;;;;62.30;29.00;;;;;;;8.18;85.73;99982.55;105756;1274;25363;-56
2022/04/21 08:03:09;;;;;;;57.60;27.10;;;;;;;8.21;85.56;99982.66;105809;1273;24218;-57
2022/04/21 08:05:41;;;;;;;65.70;28.90;;;;;;;8.22;85.36;99985.01;105941;1274;25334;-55
2022/04/21 08:08:13;;;;;;;54.10;25.30;;;;;;;8.23;85.45;99983.70;105837;1274;23175;-56
2022/04/21 08:10:45;;;;;;;57.60;27.00;;;;;;;8.24;85.46;99983.17;105699;1274;22635;-55
2022/04/21 08:13:20;;;;;;;53.70;25.40;;;;;;;8.26;85.55;99979.91;105686;1275;25410;-58
2022/04/21 08:15:53;;;;;;;50.90;24.00;;;;;;;8.30;85.50;99979.48;105839;1274;24102;-60
2022/04/21 08:18:25;;;;;;;46.90;25.00;;;;;;;8.37;85.55;99978.02;105778;1273;22597;-55
2022/04/21 08:20:58;;;;;;;52.00;23.70;;;;;;;8.46;85.33;99983.13;105955;1273;24333;-58
2022/04/21 08:23:29;;;;;;;45.30;21.60;;;;;;;8.53;85.05;99987.50;105982;1273;22767;-57
2022/04/21 08:34:31;;;;;;;42.40;19.10;;;;;;;8.69;84.39;99996.48;105394;1279;22566;-60
2022/04/21 08:37:02;;;;;;;41.10;19.80;;;;;;;8.72;84.30;99996.84;105502;1279;22570;-57
2022/04/21 08:39:34;;;;;;;36.00;16.70;;;;;;;8.75;84.52;100000.34;105498;1280;23177;-57
2022/04/21 08:42:11;;;;;;;39.00;19.70;;;;;;;8.77;84.06;100001.04;105577;1281;22642;-55
2022/04/21 08:44:49;;;;;;;42.60;20.70;;;;;;;8.75;84.03;99998.36;105460;1281;24403;-59
2022/04/21 08:47:22;;;;;;;41.30;20.50;;;;;;;8.72;83.80;99999.42;105406;1281;24344;-55
2022/04/21 08:49:57;;;;;;;39.80;19.20;;;;;;;8.70;83.94;99997.46;105379;1281;23423;-57
2022/04/21 08:52:31;;;;;;;41.50;19.10;;;;;;;8.71;83.92;99994.89;105434;1279;22550;-55
2022/04/21 08:55:03;;;;;;;39.10;19.30;;;;;;;8.70;83.63;99995.33;105455;1281;22567;-55
2022/04/21 08:57:35;;;;;;;40.10;19.80;;;;;;;8.65;83.34;99997.89;105472;1281;25376;-56
2022/04/21 09:00:09;;;;;;;37.50;18.00;;;;;;;8.63;83.67;100000.36;105474;1281;22548;-56
2022/04/21 09:02:47;;;;;;;37.40;17.70;;;;;;;8.65;83.85;100006.86;105540;1281;24276;-56
2022/04/21 09:05:20;;;;;;;39.60;19.30;;;;;;;8.70;84.19;100012.67;105520;1279;22553;-58
2022/04/21 09:07:53;;;;;;;44.60;18.70;;;;;;;8.76;84.11;100016.81;105458;1281;22589;-55
2022/04/21 09:10:25;;;;;;;39.50;20.00;;;;;;;8.78;83.58;100014.79;105682;1274;24294;-56
2022/04/21 09:12:58;;;;;;;37.90;20.10;;;;;;;8.78;83.33;100012.20;105947;1274;22668;-56
2022/04/21 09:15:32;;;;;;;42.50;20.20;;;;;;;8.76;83.01;100014.23;106010;1274;23382;-60
2022/04/21 09:18:10;;;;;;;41.30;21.90;;;;;;;8.71;82.61;100018.47;105854;1274;25310;-55
2022/04/21 09:20:43;;;;;;;40.80;20.80;;;;;;;8.69;82.86;100022.02;105783;1274;22575;-54
2022/04/21 09:23:14;;;;;;;45.40;21.60;;;;;;;8.69;83.01;100030.51;105946;1274;22642;-57
2022/04/21 09:28:29;;;;;;;44.10;22.20;;;;;;;8.68;82.71;100020.02;105988;1261;24230;-52
2022/04/21 09:31:02;;;;;;;42.30;21.90;;;;;;;8.66;82.69;100021.19;105930;1271;22553;-54
2022/04/21 09:33:37;;;;;;;37.30;18.00;;;;;;;8.65;82.51;100020.70;106034;1271;24350;-51
2022/04/21 09:36:10;;;;;;;39.40;18.60;;;;;;;8.64;82.31;100020.19;105943;1271;24418;-53
2022/04/21 09:38:41;;;;;;;40.90;20.70;;;;;;;8.66;82.43;100017.50;106022;1271;22538;-52
2022/04/21 09:41:15;;;;;;;41.50;19.70;;;;;;;8.71;82.33;100021.29;105850;1271;22542;-55
2022/04/21 09:43:46;;;;;;;42.20;19.40;;;;;;;8.73;82.00;100024.38;106036;1271;22574;-49
2022/04/21 09:46:20;;;;;;;41.90;21.00;;;;;;;8.72;81.70;100026.79;105951;1271;22549;-53
2022/04/21 09:48:55;;;;;;;42.80;21.90;;;;;;;8.74;82.06;100026.94;105797;1271;22554;-51
2022/04/21 09:51:29;;;;;;;41.70;21.60;;;;;;;8.77;82.03;100027.81;106093;1271;25346;-54
2022/04/21 09:54:03;;;;;;;42.20;20.70;;;;;;;8.81;82.12;100027.60;105694;1271;25336;-49
2022/04/21 09:56:36;;;;;;;40.00;19.90;;;;;;;8.85;81.78;100028.52;105910;1271;22754;-51
2022/04/21 09:59:09;;;;;;;39.10;19.40;;;;;;;8.89;81.66;100028.09;105854;1271;24407;-53
2022/04/21 10:01:44;;;;;;;39.60;20.10;;;;;;;8.92;81.44;100028.16;105641;1272;22609;-51
2022/04/21 10:04:18;;;;;;;45.40;20.70;;;;;;;8.96;81.68;100022.58;105678;1271;22563;-53
2022/04/21 10:06:50;;;;;;;43.50;21.00;;;;;;;9.01;81.44;100017.56;105643;1271;22570;-50
2022/04/21 10:09:22;;;;;;;39.00;17.10;;;;;;;9.09;81.92;100018.04;105770;1271;22556;-54
2022/04/21 10:11:57;;;;;;;35.80;18.80;;;;;;;9.19;81.42;100021.07;105805;1271;22684;-49
2022/04/21 10:14:29;;;;;;;34.90;17.10;;;;;;;9.26;81.35;100021.88;105725;1271;23217;-50
2022/04/21 10:17:02;;;;;;;35.20;17.20;;;;;;;9.32;80.71;100016.89;105798;1271;24261;-51
2022/04/21 10:19:33;;;;;;;38.20;19.00;;;;;;;9.35;80.85;100011.31;105970;1271;25585;-50
2022/04/21 10:22:12;;;;;;;41.90;20.00;;;;;;;9.40;80.93;100012.55;106024;1271;22516;-50
2022/04/21 10:24:46;;;;;;;39.60;20.00;;;;;;;9.45;80.80;100014.37;105778;1271;22532;-51
2022/04/21 10:27:37;;;;;;;41.50;20.80;;;;;;;9.54;80.97;100017.69;105855;1271;22547;-52
2022/04/21 10:30:21;;;;;;;36.60;20.30;;;;;;;9.65;81.06;100020.95;105414;1281;26659;-52
2022/04/21 10:32:55;;;;;;;40.00;18.30;;;;;;;9.74;80.36;100021.06;105446;1278;25213;-50
2022/04/21 10:35:49;;;;;;;33.50;16.20;;;;;;;9.72;79.54;100015.20;105403;1280;22805;-52
2022/04/21 10:38:25;;;;;;;32.80;15.80;;;;;;;9.71;78.95;100011.94;104991;1284;22629;-51
2022/04/21 10:41:06;;;;;;;31.30;15.50;;;;;;;9.72;79.22;100013.67;104709;1284;25263;-54
2022/04/21 10:44:04;;;;;;;33.30;16.20;;;;;;;9.77;79.13;100011.54;104761;1284;25525;-53
2022/04/21 10:46:36;;;;;;;34.30;17.20;;;;;;;9.82;78.88;100013.36;104563;1284;22628;-49
2022/04/21 10:49:09;;;;;;;33.90;16.20;;;;;;;9.85;78.98;100014.48;104763;1284;23195;-53
2022/04/21 10:58:53;;;;;;;35.60;18.40;;;;;;;9.86;78.33;100003.37;104886;1284;22549;-50
2022/04/21 11:01:31;;;;;;;37.10;17.50;;;;;;;9.93;78.29;100003.70;104142;1288;22592;-51
2022/04/21 11:04:17;;;;;;;52.10;27.60;;;;;;;9.95;78.24;100001.73;104240;1288;22895;-52
2022/04/21 11:06:51;;;;;;;35.70;17.30;;;;;;;10.04;78.12;99998.08;104171;1291;24287;-53
2022/04/21 11:09:53;;;;;;;32.30;15.90;;;;;;;10.12;78.13;99999.46;104815;1284;22572;-51
2022/04/21 11:12:49;;;;;;;33.60;17.10;;;;;;;10.19;77.74;99998.07;105079;1285;22636;-50
2022/04/21 11:15:50;;;;;;;31.60;16.30;;;;;;;10.29;77.95;99995.58;105242;1278;22538;-54
2022/04/21 11:18:29;;;;;;;32.50;15.90;;;;;;;10.37;77.43;99995.41;105501;1277;26579;-51
2022/04/21 11:21:23;;;;;;;32.40;15.70;;;;;;;10.42;77.21;99993.35;105513;1278;22598;-50
2022/04/21 11:24:07;;;;;;;28.70;14.70;;;;;;;10.51;77.28;99997.14;105467;1277;23206;-54
2022/04/21 11:26:38;;;;;;;30.40;14.80;;;;;;;10.56;76.93;99997.94;105474;1277;22583;-52
2022/04/21 11:29:10;;;;;;;31.50;16.10;;;;;;;10.60;76.61;99992.50;105409;1277;26701;-51
2022/04/21 11:31:41;;;;;;;35.80;16.20;;;;;;;10.64;76.30;99995.77;105514;1276;25063;-51
2022/04/21 11:34:13;;;;;;;31.40;16.10;;;;;;;10.63;76.33;99995.91;105587;1274;22558;-52
2022/04/21 11:36:45;;;;;;;35.30;18.80;;;;;;;10.64;76.01;99993.37;105766;1274;26621;-50
2022/04/21 11:39:17;;;;;;;33.30;17.30;;;;;;;10.68;75.96;99991.25;105756;1274;22538;-51
2022/04/21 11:41:52;;;;;;;31.30;17.20;;;;;;;10.71;75.65;99987.65;105881;1273;26611;-49
2022/04/21 11:44:27;;;;;;;32.70;17.60;;;;;;;10.77;76.25;99984.67;105662;1274;25322;-52
2022/04/21 11:47:00;;;;;;;33.70;17.60;;;;;;;10.86;75.98;99981.16;105679;1274;25292;-53
2022/04/21 11:49:31;;;;;;;32.90;16.00;;;;;;;10.92;75.41;99978.09;106007;1272;24341;-50
2022/04/21 11:52:05;;;;;;;29.80;13.50;;;;;;;11.00;75.37;99984.13;105775;1274;22538;-55
2022/04/21 11:54:38;;;;;;;29.00;13.70;;;;;;;11.05;75.05;99978.87;105665;1274;22604;-53
2022/04/21 11:57:10;;;;;;;31.70;15.70;;;;;;;11.05;74.70;99978.67;105604;1274;22562;-53
2022/04/21 11:59:43;;;;;;;29.70;15.20;;;;;;;11.08;74.42;99977.69;105977;1274;22576;-51
2022/04/21 12:07:56;;;;;;;25.50;12.60;;;;;;;11.17;73.85;99975.61;105387;1277;22616;-51
2022/04/21 12:10:28;;;;;;;27.90;12.40;;;;;;;11.18;73.29;99968.61;105449;1277;22567;-54
2022/04/21 12:13:01;;;;;;;25.80;13.10;;;;;;;11.23;73.48;99966.14;105495;1277;22580;-52
2022/04/21 12:15:33;;;;;;;24.80;12.70;;;;;;;11.26;72.54;99965.30;105553;1277;23239;-51
2022/04/21 12:18:06;;;;;;;28.40;14.40;;;;;;;11.23;72.01;99965.48;105391;1277;24528;-53
2022/04/21 12:20:56;;;;;;;26.70;13.10;;;;;;;11.19;72.46;99964.82;105394;1276;24331;-53
2022/04/21 12:23:28;;;;;;;32.30;15.60;;;;;;;11.20;72.69;99962.48;105565;1276;22532;-52
2022/04/21 12:26:01;;;;;;;30.80;15.60;;;;;;;11.23;73.00;99959.95;105441;1277;22611;-50
2022/04/21 12:28:46;;;;;;;25.10;12.80;;;;;;;11.29;72.25;99957.06;105441;1276;23242;-51
2022/04/21 12:31:21;;;;;;;25.10;13.30;;;;;;;11.27;71.90;99960.05;105531;1277;25297;-52
2022/04/21 12:33:54;;;;;;;28.40;13.70;;;;;;;11.25;71.45;99955.80;105467;1277;22592;-51
2022/04/21 12:36:30;;;;;;;27.00;13.90;;;;;;;11.23;71.46;99956.55;105429;1277;22792;-54
2022/04/21 12:39:04;;;;;;;27.40;14.50;;;;;;;11.26;71.65;99954.13;105416;1277;22570;-52